sensor_id;sensor_type;location;lat;lon;timestamp;P1;durP1;ratioP1;P2;durP2;ratioP2
74941;SDS011;63506;49.346;8.798;2023-03-11T00:00:37;1.70;;;0.80;;
74941;SDS011;63506;49.346;8.798;2023-03-11T00:03:06;0.93;;;0.90;;
74941;SDS011;63506;49.346;8.798;2023-03-11T00:05:34;1.15;;;0.90;;
74941;SDS011;63506;49.346;8.798;2023-03-11T00:08:07;0.95;;;0.80;;
74941;SDS011;63506;49.346;8.798;2023-03-11T00:10:39;0.90;;;0.85;;
74941;SDS011;63506;49.346;8.798;2023-03-11T00:13:10;1.50;;;0.80;;
74941;SDS011;63506;49.346;8.798;2023-03-11T00:15:39;0.98;;;0.90;;
74941;SDS011;63506;49.346;8.798;2023-03-11T00:18:10;0.60;;;0.60;;
74941;SDS011;63506;49.346;8.798;2023-03-11T00:20:37;2.60;;;1.35;;
74941;SDS011;63506;49.346;8.798;2023-03-11T00:23:10;0.85;;;0.63;;
74941;SDS011;63506;49.346;8.798;2023-03-11T00:25:38;1.00;;;0.70;;
74941;SDS011;63506;49.346;8.798;2023-03-11T00:28:08;3.45;;;1.23;;
74941;SDS011;63506;49.346;8.798;2023-03-11T00:30:39;3.47;;;1.52;;
74941;SDS011;63506;49.346;8.798;2023-03-11T00:33:07;0.85;;;0.60;;
74941;SDS011;63506;49.346;8.798;2023-03-11T00:35:41;1.83;;;0.80;;
74941;SDS011;63506;49.346;8.798;2023-03-11T00:38:11;5.28;;;1.25;;
74941;SDS011;63506;49.346;8.798;2023-03-11T00:40:41;3.40;;;1.00;;
74941;SDS011;63506;49.346;8.798;2023-03-11T00:43:08;1.88;;;0.90;;
74941;SDS011;63506;49.346;8.798;2023-03-11T00:45:36;1.50;;;0.80;;
74941;SDS011;63506;49.346;8.798;2023-03-11T00:48:10;1.58;;;0.80;;
74941;SDS011;63506;49.346;8.798;2023-03-11T00:50:38;0.73;;;0.73;;
74941;SDS011;63506;49.346;8.798;2023-03-11T00:53:06;2.83;;;0.95;;
74941;SDS011;63506;49.346;8.798;2023-03-11T00:55:37;1.30;;;0.63;;
74941;SDS011;63506;49.346;8.798;2023-03-11T00:58:07;1.58;;;1.27;;
74941;SDS011;63506;49.346;8.798;2023-03-11T01:00:41;1.27;;;0.60;;
74941;SDS011;63506;49.346;8.798;2023-03-11T01:03:08;1.30;;;1.00;;
74941;SDS011;63506;49.346;8.798;2023-03-11T01:05:36;2.58;;;0.60;;
74941;SDS011;63506;49.346;8.798;2023-03-11T01:08:06;1.92;;;1.23;;
74941;SDS011;63506;49.346;8.798;2023-03-11T01:10:36;1.08;;;0.98;;
74941;SDS011;63506;49.346;8.798;2023-03-11T01:13:06;1.15;;;1.05;;
74941;SDS011;63506;49.346;8.798;2023-03-11T01:15:34;2.63;;;1.65;;
74941;SDS011;63506;49.346;8.798;2023-03-11T01:18:03;2.78;;;0.80;;
74941;SDS011;63506;49.346;8.798;2023-03-11T01:20:32;4.00;;;1.00;;
74941;SDS011;63506;49.346;8.798;2023-03-11T01:23:03;0.85;;;0.82;;
74941;SDS011;63506;49.346;8.798;2023-03-11T01:25:33;1.10;;;1.00;;
74941;SDS011;63506;49.346;8.798;2023-03-11T01:28:02;0.55;;;0.55;;
74941;SDS011;63506;49.346;8.798;2023-03-11T01:30:35;1.42;;;1.23;;
74941;SDS011;63506;49.346;8.798;2023-03-11T01:33:03;1.10;;;0.85;;
74941;SDS011;63506;49.346;8.798;2023-03-11T01:35:31;0.93;;;0.82;;
74941;SDS011;63506;49.346;8.798;2023-03-11T01:38:02;1.67;;;1.20;;
74941;SDS011;63506;49.346;8.798;2023-03-11T01:40:35;0.77;;;0.70;;
74941;SDS011;63506;49.346;8.798;2023-03-11T01:47:23;2.78;;;1.27;;
74941;SDS011;63506;49.346;8.798;2023-03-11T01:49:46;2.45;;;1.02;;
74941;SDS011;63506;49.346;8.798;2023-03-11T01:52:17;2.65;;;1.33;;
74941;SDS011;63506;49.346;8.798;2023-03-11T01:54:48;3.55;;;1.45;;
74941;SDS011;63506;49.346;8.798;2023-03-11T01:57:15;1.55;;;1.10;;
74941;SDS011;63506;49.346;8.798;2023-03-11T01:59:43;3.42;;;1.20;;
74941;SDS011;63506;49.346;8.798;2023-03-11T02:02:20;1.02;;;0.77;;
74941;SDS011;63506;49.346;8.798;2023-03-11T02:04:52;2.30;;;1.10;;
74941;SDS011;63506;49.346;8.798;2023-03-11T02:07:26;1.92;;;1.35;;
74941;SDS011;63506;49.346;8.798;2023-03-11T02:09:54;1.73;;;1.48;;
74941;SDS011;63506;49.346;8.798;2023-03-11T02:12:21;2.50;;;1.08;;
74941;SDS011;63506;49.346;8.798;2023-03-11T02:14:51;3.88;;;1.30;;
74941;SDS011;63506;49.346;8.798;2023-03-11T02:17:21;3.95;;;2.65;;
74941;SDS011;63506;49.346;8.798;2023-03-11T02:20:01;3.65;;;1.02;;
74941;SDS011;63506;49.346;8.798;2023-03-11T02:22:38;1.67;;;0.95;;
74941;SDS011;63506;49.346;8.798;2023-03-11T02:25:12;1.83;;;1.05;;
74941;SDS011;63506;49.346;8.798;2023-03-11T02:27:51;1.77;;;0.95;;
74941;SDS011;63506;49.346;8.798;2023-03-11T02:30:22;2.10;;;0.90;;
74941;SDS011;63506;49.346;8.798;2023-03-11T02:32:52;2.25;;;1.13;;
74941;SDS011;63506;49.346;8.798;2023-03-11T02:35:21;1.92;;;1.40;;
74941;SDS011;63506;49.346;8.798;2023-03-11T02:37:52;2.35;;;0.80;;
74941;SDS011;63506;49.346;8.798;2023-03-11T02:40:37;1.77;;;1.48;;
74941;SDS011;63506;49.346;8.798;2023-03-11T02:43:12;0.85;;;0.70;;
74941;SDS011;63506;49.346;8.798;2023-03-11T02:45:42;1.98;;;1.02;;
74941;SDS011;63506;49.346;8.798;2023-03-11T02:48:12;1.35;;;1.05;;
74941;SDS011;63506;49.346;8.798;2023-03-11T02:50:43;3.53;;;1.63;;
74941;SDS011;63506;49.346;8.798;2023-03-11T02:53:18;1.92;;;1.38;;
74941;SDS011;63506;49.346;8.798;2023-03-11T02:55:48;2.60;;;1.20;;
74941;SDS011;63506;49.346;8.798;2023-03-11T02:58:17;2.17;;;1.35;;
74941;SDS011;63506;49.346;8.798;2023-03-11T03:00:44;1.60;;;0.90;;
74941;SDS011;63506;49.346;8.798;2023-03-11T03:03:11;2.90;;;0.98;;
74941;SDS011;63506;49.346;8.798;2023-03-11T03:05:41;1.50;;;0.90;;
74941;SDS011;63506;49.346;8.798;2023-03-11T03:08:13;2.08;;;1.60;;
74941;SDS011;63506;49.346;8.798;2023-03-11T03:10:41;7.68;;;1.35;;
74941;SDS011;63506;49.346;8.798;2023-03-11T03:13:08;2.42;;;1.20;;
74941;SDS011;63506;49.346;8.798;2023-03-11T03:15:37;1.85;;;0.98;;
74941;SDS011;63506;49.346;8.798;2023-03-11T03:18:07;1.80;;;1.25;;
74941;SDS011;63506;49.346;8.798;2023-03-11T03:20:39;7.22;;;1.27;;
74941;SDS011;63506;49.346;8.798;2023-03-11T03:23:06;1.85;;;1.15;;
74941;SDS011;63506;49.346;8.798;2023-03-11T03:25:33;2.47;;;1.52;;
74941;SDS011;63506;49.346;8.798;2023-03-11T03:28:04;2.88;;;1.70;;
74941;SDS011;63506;49.346;8.798;2023-03-11T03:30:36;1.77;;;1.58;;
74941;SDS011;63506;49.346;8.798;2023-03-11T03:33:04;1.50;;;0.90;;
74941;SDS011;63506;49.346;8.798;2023-03-11T03:35:32;3.55;;;1.58;;
74941;SDS011;63506;49.346;8.798;2023-03-11T03:38:23;1.65;;;1.17;;
74941;SDS011;63506;49.346;8.798;2023-03-11T03:40:54;1.50;;;1.20;;
74941;SDS011;63506;49.346;8.798;2023-03-11T03:43:23;2.42;;;1.17;;
74941;SDS011;63506;49.346;8.798;2023-03-11T03:45:55;5.07;;;1.20;;
74941;SDS011;63506;49.346;8.798;2023-03-11T03:48:24;1.20;;;0.93;;
74941;SDS011;63506;49.346;8.798;2023-03-11T03:50:52;1.77;;;1.05;;
74941;SDS011;63506;49.346;8.798;2023-03-11T03:53:19;1.85;;;1.27;;
74941;SDS011;63506;49.346;8.798;2023-03-11T03:55:47;3.35;;;0.90;;
74941;SDS011;63506;49.346;8.798;2023-03-11T03:58:15;5.80;;;1.35;;
74941;SDS011;63506;49.346;8.798;2023-03-11T04:00:43;1.60;;;1.50;;
74941;SDS011;63506;49.346;8.798;2023-03-11T04:03:12;2.00;;;1.10;;
74941;SDS011;63506;49.346;8.798;2023-03-11T04:05:49;9.90;;;1.95;;
74941;SDS011;63506;49.346;8.798;2023-03-11T04:08:19;2.35;;;1.00;;
74941;SDS011;63506;49.346;8.798;2023-03-11T04:10:54;2.47;;;2.10;;
74941;SDS011;63506;49.346;8.798;2023-03-11T04:13:27;2.17;;;1.15;;
74941;SDS011;63506;49.346;8.798;2023-03-11T04:15:54;3.67;;;1.38;;
74941;SDS011;63506;49.346;8.798;2023-03-11T04:18:23;1.40;;;1.10;;
74941;SDS011;63506;49.346;8.798;2023-03-11T04:20:50;2.83;;;1.52;;
74941;SDS011;63506;49.346;8.798;2023-03-11T04:23:21;2.92;;;1.52;;
74941;SDS011;63506;49.346;8.798;2023-03-11T04:25:53;3.30;;;1.77;;
74941;SDS011;63506;49.346;8.798;2023-03-11T04:28:20;3.15;;;1.40;;
74941;SDS011;63506;49.346;8.798;2023-03-11T04:30:48;5.20;;;2.17;;
74941;SDS011;63506;49.346;8.798;2023-03-11T04:33:15;1.95;;;1.38;;
74941;SDS011;63506;49.346;8.798;2023-03-11T04:35:47;4.13;;;2.30;;
74941;SDS011;63506;49.346;8.798;2023-03-11T04:38:16;5.32;;;2.42;;
74941;SDS011;63506;49.346;8.798;2023-03-11T04:40:43;4.43;;;1.42;;
74941;SDS011;63506;49.346;8.798;2023-03-11T04:43:16;5.68;;;2.72;;
74941;SDS011;63506;49.346;8.798;2023-03-11T04:45:48;5.35;;;1.70;;
74941;SDS011;63506;49.346;8.798;2023-03-11T04:48:16;2.08;;;1.60;;
74941;SDS011;63506;49.346;8.798;2023-03-11T04:50:47;2.35;;;1.35;;
74941;SDS011;63506;49.346;8.798;2023-03-11T04:53:16;2.67;;;1.52;;
74941;SDS011;63506;49.346;8.798;2023-03-11T04:55:44;2.20;;;1.00;;
74941;SDS011;63506;49.346;8.798;2023-03-11T04:58:12;2.53;;;1.35;;
74941;SDS011;63506;49.346;8.798;2023-03-11T05:00:43;2.92;;;1.85;;
74941;SDS011;63506;49.346;8.798;2023-03-11T05:03:12;4.43;;;1.60;;
74941;SDS011;63506;49.346;8.798;2023-03-11T05:05:44;5.38;;;1.25;;
74941;SDS011;63506;49.346;8.798;2023-03-11T05:08:15;6.07;;;1.70;;
74941;SDS011;63506;49.346;8.798;2023-03-11T05:10:43;4.97;;;1.80;;
74941;SDS011;63506;49.346;8.798;2023-03-11T05:13:13;5.30;;;1.95;;
74941;SDS011;63506;49.346;8.798;2023-03-11T05:15:40;4.35;;;1.27;;
74941;SDS011;63506;49.346;8.798;2023-03-11T05:18:08;3.60;;;1.45;;
74941;SDS011;63506;49.346;8.798;2023-03-11T05:20:37;4.55;;;2.00;;
74941;SDS011;63506;49.346;8.798;2023-03-11T05:23:08;2.85;;;1.80;;
74941;SDS011;63506;49.346;8.798;2023-03-11T05:25:37;1.77;;;1.30;;
74941;SDS011;63506;49.346;8.798;2023-03-11T05:28:05;2.92;;;1.58;;
74941;SDS011;63506;49.346;8.798;2023-03-11T05:30:36;3.92;;;1.55;;
74941;SDS011;63506;49.346;8.798;2023-03-11T05:33:03;2.40;;;1.65;;
74941;SDS011;63506;49.346;8.798;2023-03-11T05:35:30;4.72;;;2.65;;
74941;SDS011;63506;49.346;8.798;2023-03-11T05:37:58;11.38;;;2.90;;
74941;SDS011;63506;49.346;8.798;2023-03-11T05:40:28;2.92;;;2.25;;
74941;SDS011;63506;49.346;8.798;2023-03-11T05:42:57;3.75;;;1.42;;
74941;SDS011;63506;49.346;8.798;2023-03-11T05:45:26;3.38;;;1.48;;
74941;SDS011;63506;49.346;8.798;2023-03-11T05:47:58;2.30;;;1.85;;
74941;SDS011;63506;49.346;8.798;2023-03-11T05:50:26;1.60;;;1.27;;
74941;SDS011;63506;49.346;8.798;2023-03-11T05:52:55;2.85;;;1.40;;
74941;SDS011;63506;49.346;8.798;2023-03-11T05:55:23;3.75;;;1.80;;
74941;SDS011;63506;49.346;8.798;2023-03-11T05:57:52;1.92;;;1.23;;
74941;SDS011;63506;49.346;8.798;2023-03-11T06:00:22;4.85;;;1.60;;
74941;SDS011;63506;49.346;8.798;2023-03-11T06:02:51;10.48;;;2.08;;
74941;SDS011;63506;49.346;8.798;2023-03-11T06:05:19;4.05;;;2.60;;
74941;SDS011;63506;49.346;8.798;2023-03-11T06:07:48;4.53;;;2.13;;
74941;SDS011;63506;49.346;8.798;2023-03-11T06:10:16;1.55;;;1.42;;
74941;SDS011;63506;49.346;8.798;2023-03-11T06:12:49;3.42;;;1.35;;
74941;SDS011;63506;49.346;8.798;2023-03-11T06:15:23;3.90;;;1.83;;
74941;SDS011;63506;49.346;8.798;2023-03-11T06:17:54;5.13;;;1.77;;
74941;SDS011;63506;49.346;8.798;2023-03-11T06:20:31;3.03;;;1.95;;
74941;SDS011;63506;49.346;8.798;2023-03-11T06:23:01;3.42;;;2.00;;
74941;SDS011;63506;49.346;8.798;2023-03-11T06:25:30;7.53;;;2.63;;
74941;SDS011;63506;49.346;8.798;2023-03-11T06:27:59;4.63;;;2.55;;
74941;SDS011;63506;49.346;8.798;2023-03-11T06:30:34;6.35;;;3.17;;
74941;SDS011;63506;49.346;8.798;2023-03-11T06:33:09;3.55;;;3.10;;
74941;SDS011;63506;49.346;8.798;2023-03-11T06:35:38;3.83;;;3.47;;
74941;SDS011;63506;49.346;8.798;2023-03-11T06:38:08;9.27;;;4.82;;
74941;SDS011;63506;49.346;8.798;2023-03-11T06:40:35;8.73;;;6.05;;
74941;SDS011;63506;49.346;8.798;2023-03-11T06:43:06;7.97;;;5.25;;
74941;SDS011;63506;49.346;8.798;2023-03-11T06:45:38;18.20;;;5.80;;
74941;SDS011;63506;49.346;8.798;2023-03-11T06:48:07;6.07;;;3.03;;
74941;SDS011;63506;49.346;8.798;2023-03-11T06:50:35;9.50;;;4.88;;
74941;SDS011;63506;49.346;8.798;2023-03-11T06:53:03;6.47;;;3.42;;
74941;SDS011;63506;49.346;8.798;2023-03-11T06:55:34;6.25;;;4.07;;
74941;SDS011;63506;49.346;8.798;2023-03-11T06:58:02;4.63;;;2.75;;
74941;SDS011;63506;49.346;8.798;2023-03-11T07:00:32;7.55;;;2.63;;
74941;SDS011;63506;49.346;8.798;2023-03-11T07:03:03;6.20;;;1.80;;
74941;SDS011;63506;49.346;8.798;2023-03-11T07:05:35;4.85;;;1.30;;
74941;SDS011;63506;49.346;8.798;2023-03-11T07:08:06;3.05;;;2.13;;
74941;SDS011;63506;49.346;8.798;2023-03-11T07:10:34;3.55;;;1.63;;
74941;SDS011;63506;49.346;8.798;2023-03-11T07:13:01;4.28;;;1.50;;
74941;SDS011;63506;49.346;8.798;2023-03-11T07:15:29;4.38;;;1.90;;
74941;SDS011;63506;49.346;8.798;2023-03-11T07:17:59;3.35;;;1.55;;
74941;SDS011;63506;49.346;8.798;2023-03-11T07:20:29;7.53;;;1.85;;
74941;SDS011;63506;49.346;8.798;2023-03-11T07:23:00;1.77;;;1.15;;
74941;SDS011;63506;49.346;8.798;2023-03-11T07:25:27;2.83;;;1.60;;
74941;SDS011;63506;49.346;8.798;2023-03-11T07:27:54;3.38;;;2.00;;
74941;SDS011;63506;49.346;8.798;2023-03-11T07:30:21;4.50;;;1.70;;
74941;SDS011;63506;49.346;8.798;2023-03-11T07:32:51;7.07;;;2.13;;
74941;SDS011;63506;49.346;8.798;2023-03-11T07:35:20;1.92;;;1.40;;
74941;SDS011;63506;49.346;8.798;2023-03-11T07:37:49;3.78;;;2.08;;
74941;SDS011;63506;49.346;8.798;2023-03-11T07:40:16;1.85;;;1.65;;
74941;SDS011;63506;49.346;8.798;2023-03-11T07:42:46;3.40;;;1.77;;
74941;SDS011;63506;49.346;8.798;2023-03-11T07:45:18;3.30;;;1.30;;
74941;SDS011;63506;49.346;8.798;2023-03-11T07:47:48;2.40;;;1.23;;
74941;SDS011;63506;49.346;8.798;2023-03-11T07:50:15;3.70;;;1.73;;
74941;SDS011;63506;49.346;8.798;2023-03-11T07:52:43;2.63;;;2.22;;
74941;SDS011;63506;49.346;8.798;2023-03-11T07:55:11;3.28;;;1.95;;
74941;SDS011;63506;49.346;8.798;2023-03-11T07:57:41;5.40;;;2.83;;
74941;SDS011;63506;49.346;8.798;2023-03-11T08:00:09;3.45;;;1.38;;
74941;SDS011;63506;49.346;8.798;2023-03-11T08:02:42;5.82;;;1.95;;
74941;SDS011;63506;49.346;8.798;2023-03-11T08:05:10;4.72;;;2.15;;
74941;SDS011;63506;49.346;8.798;2023-03-11T08:07:37;9.65;;;2.78;;
74941;SDS011;63506;49.346;8.798;2023-03-11T08:10:05;1.88;;;1.60;;
74941;SDS011;63506;49.346;8.798;2023-03-11T08:12:38;3.90;;;2.47;;
74941;SDS011;63506;49.346;8.798;2023-03-11T08:15:08;6.30;;;1.60;;
74941;SDS011;63506;49.346;8.798;2023-03-11T08:17:36;3.08;;;1.88;;
74941;SDS011;63506;49.346;8.798;2023-03-11T08:20:04;8.05;;;2.28;;
74941;SDS011;63506;49.346;8.798;2023-03-11T08:22:58;4.72;;;1.60;;
74941;SDS011;63506;49.346;8.798;2023-03-11T08:25:25;5.53;;;2.03;;
74941;SDS011;63506;49.346;8.798;2023-03-11T08:27:56;4.18;;;1.60;;
74941;SDS011;63506;49.346;8.798;2023-03-11T08:30:23;3.35;;;1.50;;
74941;SDS011;63506;49.346;8.798;2023-03-11T08:32:54;5.72;;;1.85;;
74941;SDS011;63506;49.346;8.798;2023-03-11T08:35:21;3.17;;;2.05;;
74941;SDS011;63506;49.346;8.798;2023-03-11T08:37:51;3.95;;;2.00;;
74941;SDS011;63506;49.346;8.798;2023-03-11T08:40:18;2.20;;;1.65;;
74941;SDS011;63506;49.346;8.798;2023-03-11T08:42:47;5.90;;;1.90;;
74941;SDS011;63506;49.346;8.798;2023-03-11T08:45:16;2.85;;;1.55;;
74941;SDS011;63506;49.346;8.798;2023-03-11T08:47:46;5.28;;;2.08;;
74941;SDS011;63506;49.346;8.798;2023-03-11T08:50:14;4.80;;;1.90;;
74941;SDS011;63506;49.346;8.798;2023-03-11T08:52:45;3.05;;;1.42;;
74941;SDS011;63506;49.346;8.798;2023-03-11T08:55:15;7.70;;;1.75;;
74941;SDS011;63506;49.346;8.798;2023-03-11T08:58:13;3.28;;;1.95;;
74941;SDS011;63506;49.346;8.798;2023-03-11T09:00:42;4.38;;;1.77;;
74941;SDS011;63506;49.346;8.798;2023-03-11T09:03:09;3.33;;;2.03;;
74941;SDS011;63506;49.346;8.798;2023-03-11T09:05:36;3.85;;;1.65;;
74941;SDS011;63506;49.346;8.798;2023-03-11T09:08:09;3.72;;;2.35;;
74941;SDS011;63506;49.346;8.798;2023-03-11T09:10:36;3.72;;;1.98;;
74941;SDS011;63506;49.346;8.798;2023-03-11T09:13:03;3.97;;;1.85;;
74941;SDS011;63506;49.346;8.798;2023-03-11T09:15:32;1.90;;;1.23;;
74941;SDS011;63506;49.346;8.798;2023-03-11T09:18:02;3.80;;;2.30;;
74941;SDS011;63506;49.346;8.798;2023-03-11T09:20:32;2.47;;;1.45;;
74941;SDS011;63506;49.346;8.798;2023-03-11T09:22:59;2.35;;;1.42;;
74941;SDS011;63506;49.346;8.798;2023-03-11T09:25:29;4.53;;;1.58;;
74941;SDS011;63506;49.346;8.798;2023-03-11T09:27:56;3.92;;;2.13;;
74941;SDS011;63506;49.346;8.798;2023-03-11T09:30:23;7.07;;;2.22;;
74941;SDS011;63506;49.346;8.798;2023-03-11T09:33:16;3.17;;;0.90;;
74941;SDS011;63506;49.346;8.798;2023-03-11T09:35:44;2.95;;;1.08;;
74941;SDS011;63506;49.346;8.798;2023-03-11T09:38:16;2.38;;;1.10;;
74941;SDS011;63506;49.346;8.798;2023-03-11T09:40:49;4.53;;;1.73;;
74941;SDS011;63506;49.346;8.798;2023-03-11T09:43:25;4.68;;;1.75;;
74941;SDS011;63506;49.346;8.798;2023-03-11T09:45:59;4.03;;;1.55;;
74941;SDS011;63506;49.346;8.798;2023-03-11T09:48:33;1.45;;;0.90;;
74941;SDS011;63506;49.346;8.798;2023-03-11T09:51:04;2.42;;;1.30;;
74941;SDS011;63506;49.346;8.798;2023-03-11T09:53:40;2.90;;;1.85;;
74941;SDS011;63506;49.346;8.798;2023-03-11T09:56:08;2.17;;;1.63;;
74941;SDS011;63506;49.346;8.798;2023-03-11T09:58:36;3.38;;;1.23;;
74941;SDS011;63506;49.346;8.798;2023-03-11T10:01:16;3.05;;;1.10;;
74941;SDS011;63506;49.346;8.798;2023-03-11T10:03:49;3.33;;;1.25;;
74941;SDS011;63506;49.346;8.798;2023-03-11T10:06:20;3.95;;;1.15;;
74941;SDS011;63506;49.346;8.798;2023-03-11T10:08:53;3.00;;;2.17;;
74941;SDS011;63506;49.346;8.798;2023-03-11T10:11:29;3.20;;;2.05;;
74941;SDS011;63506;49.346;8.798;2023-03-11T10:14:08;3.40;;;1.42;;
74941;SDS011;63506;49.346;8.798;2023-03-11T10:16:46;2.47;;;1.40;;
74941;SDS011;63506;49.346;8.798;2023-03-11T10:19:24;4.15;;;1.33;;
74941;SDS011;63506;49.346;8.798;2023-03-11T10:22:00;3.15;;;1.73;;
74941;SDS011;63506;49.346;8.798;2023-03-11T10:27:27;3.72;;;2.35;;
74941;SDS011;63506;49.346;8.798;2023-03-11T10:30:03;2.15;;;1.55;;
74941;SDS011;63506;49.346;8.798;2023-03-11T10:32:38;3.97;;;2.20;;
74941;SDS011;63506;49.346;8.798;2023-03-11T10:35:15;5.40;;;2.47;;
74941;SDS011;63506;49.346;8.798;2023-03-11T10:37:50;3.22;;;1.88;;
74941;SDS011;63506;49.346;8.798;2023-03-11T10:40:21;3.00;;;1.60;;
74941;SDS011;63506;49.346;8.798;2023-03-11T10:42:54;3.45;;;1.80;;
74941;SDS011;63506;49.346;8.798;2023-03-11T10:45:24;2.25;;;1.27;;
74941;SDS011;63506;49.346;8.798;2023-03-11T10:47:55;3.60;;;1.60;;
74941;SDS011;63506;49.346;8.798;2023-03-11T10:50:25;4.65;;;2.15;;
74941;SDS011;63506;49.346;8.798;2023-03-11T10:53:06;4.05;;;2.20;;
74941;SDS011;63506;49.346;8.798;2023-03-11T10:55:34;3.47;;;1.83;;
74941;SDS011;63506;49.346;8.798;2023-03-11T10:58:10;2.58;;;1.60;;
74941;SDS011;63506;49.346;8.798;2023-03-11T11:00:41;7.18;;;2.13;;
74941;SDS011;63506;49.346;8.798;2023-03-11T11:03:14;3.58;;;1.70;;
74941;SDS011;63506;49.346;8.798;2023-03-11T11:05:57;2.85;;;2.20;;
74941;SDS011;63506;49.346;8.798;2023-03-11T11:08:25;1.98;;;1.27;;
74941;SDS011;63506;49.346;8.798;2023-03-11T11:10:56;4.05;;;1.50;;
74941;SDS011;63506;49.346;8.798;2023-03-11T11:13:26;6.43;;;1.77;;
74941;SDS011;63506;49.346;8.798;2023-03-11T11:15:59;9.95;;;3.20;;
74941;SDS011;63506;49.346;8.798;2023-03-11T11:18:28;1.65;;;1.55;;
74941;SDS011;63506;49.346;8.798;2023-03-11T11:21:00;3.70;;;2.22;;
74941;SDS011;63506;49.346;8.798;2023-03-11T11:23:30;6.75;;;2.00;;
74941;SDS011;63506;49.346;8.798;2023-03-11T11:26:02;6.03;;;2.22;;
74941;SDS011;63506;49.346;8.798;2023-03-11T11:28:31;4.93;;;1.98;;
74941;SDS011;63506;49.346;8.798;2023-03-11T11:31:02;1.55;;;1.42;;
74941;SDS011;63506;49.346;8.798;2023-03-11T11:33:31;2.00;;;1.35;;
74941;SDS011;63506;49.346;8.798;2023-03-11T11:36:02;1.95;;;1.10;;
74941;SDS011;63506;49.346;8.798;2023-03-11T11:38:31;7.32;;;2.35;;
74941;SDS011;63506;49.346;8.798;2023-03-11T11:41:02;2.25;;;1.20;;
74941;SDS011;63506;49.346;8.798;2023-03-11T11:43:40;5.15;;;1.58;;
74941;SDS011;63506;49.346;8.798;2023-03-11T11:46:12;10.00;;;2.83;;
74941;SDS011;63506;49.346;8.798;2023-03-11T11:48:46;5.00;;;1.85;;
74941;SDS011;63506;49.346;8.798;2023-03-11T11:51:20;2.45;;;1.30;;
74941;SDS011;63506;49.346;8.798;2023-03-11T11:53:54;3.28;;;1.77;;
74941;SDS011;63506;49.346;8.798;2023-03-11T11:56:24;1.55;;;1.30;;
74941;SDS011;63506;49.346;8.798;2023-03-11T11:58:51;2.75;;;1.42;;
74941;SDS011;63506;49.346;8.798;2023-03-11T12:01:21;1.60;;;1.20;;
74941;SDS011;63506;49.346;8.798;2023-03-11T12:04:19;4.45;;;1.48;;
74941;SDS011;63506;49.346;8.798;2023-03-11T12:07:19;1.23;;;1.02;;
74941;SDS011;63506;49.346;8.798;2023-03-11T12:09:59;2.25;;;1.17;;
74941;SDS011;63506;49.346;8.798;2023-03-11T12:12:38;1.00;;;0.85;;
74941;SDS011;63506;49.346;8.798;2023-03-11T12:15:11;3.20;;;1.48;;
74941;SDS011;63506;49.346;8.798;2023-03-11T12:17:42;1.73;;;1.63;;
74941;SDS011;63506;49.346;8.798;2023-03-11T12:20:11;1.58;;;1.25;;
74941;SDS011;63506;49.346;8.798;2023-03-11T12:25:32;3.45;;;1.40;;
74941;SDS011;63506;49.346;8.798;2023-03-11T12:28:11;1.42;;;0.75;;
74941;SDS011;63506;49.346;8.798;2023-03-11T12:30:45;2.50;;;0.95;;
74941;SDS011;63506;49.346;8.798;2023-03-11T12:33:17;3.03;;;1.40;;
74941;SDS011;63506;49.346;8.798;2023-03-11T12:35:56;3.50;;;2.28;;
74941;SDS011;63506;49.346;8.798;2023-03-11T12:38:29;4.00;;;1.27;;
74941;SDS011;63506;49.346;8.798;2023-03-11T12:41:07;2.35;;;1.63;;
74941;SDS011;63506;49.346;8.798;2023-03-11T12:43:56;2.40;;;1.90;;
74941;SDS011;63506;49.346;8.798;2023-03-11T12:49:25;1.63;;;1.30;;
74941;SDS011;63506;49.346;8.798;2023-03-11T12:52:03;1.95;;;1.27;;
74941;SDS011;63506;49.346;8.798;2023-03-11T12:54:46;5.43;;;1.48;;
74941;SDS011;63506;49.346;8.798;2023-03-11T12:57:30;2.75;;;0.98;;
74941;SDS011;63506;49.346;8.798;2023-03-11T13:00:05;1.73;;;1.63;;
74941;SDS011;63506;49.346;8.798;2023-03-11T13:02:53;1.42;;;1.27;;
74941;SDS011;63506;49.346;8.798;2023-03-11T13:05:28;2.03;;;1.30;;
74941;SDS011;63506;49.346;8.798;2023-03-11T13:08:09;3.17;;;1.60;;
74941;SDS011;63506;49.346;8.798;2023-03-11T13:10:43;3.22;;;1.25;;
74941;SDS011;63506;49.346;8.798;2023-03-11T13:22:00;2.95;;;1.35;;
74941;SDS011;63506;49.346;8.798;2023-03-11T13:24:39;2.10;;;1.33;;
74941;SDS011;63506;49.346;8.798;2023-03-11T13:27:11;1.73;;;1.20;;
74941;SDS011;63506;49.346;8.798;2023-03-11T13:29:52;5.60;;;1.30;;
74941;SDS011;63506;49.346;8.798;2023-03-11T13:32:24;2.72;;;1.80;;
74941;SDS011;63506;49.346;8.798;2023-03-11T13:35:06;2.88;;;1.20;;
74941;SDS011;63506;49.346;8.798;2023-03-11T13:37:41;8.98;;;2.45;;
74941;SDS011;63506;49.346;8.798;2023-03-11T13:40:16;1.60;;;1.10;;
74941;SDS011;63506;49.346;8.798;2023-03-11T13:42:53;1.73;;;1.15;;
74941;SDS011;63506;49.346;8.798;2023-03-11T13:45:27;2.13;;;1.15;;
74941;SDS011;63506;49.346;8.798;2023-03-11T13:47:58;1.45;;;1.00;;
74941;SDS011;63506;49.346;8.798;2023-03-11T13:50:30;4.55;;;1.15;;
74941;SDS011;63506;49.346;8.798;2023-03-11T13:53:06;2.78;;;1.77;;
74941;SDS011;63506;49.346;8.798;2023-03-11T13:55:38;3.17;;;1.30;;
74941;SDS011;63506;49.346;8.798;2023-03-11T13:58:17;2.25;;;1.40;;
74941;SDS011;63506;49.346;8.798;2023-03-11T14:00:50;2.47;;;1.33;;
74941;SDS011;63506;49.346;8.798;2023-03-11T14:03:25;7.63;;;2.58;;
74941;SDS011;63506;49.346;8.798;2023-03-11T14:05:57;1.58;;;1.20;;
74941;SDS011;63506;49.346;8.798;2023-03-11T14:08:34;3.10;;;1.40;;
74941;SDS011;63506;49.346;8.798;2023-03-11T14:11:13;5.53;;;1.60;;
74941;SDS011;63506;49.346;8.798;2023-03-11T14:13:45;2.35;;;1.27;;
74941;SDS011;63506;49.346;8.798;2023-03-11T14:16:17;3.45;;;1.80;;
74941;SDS011;63506;49.346;8.798;2023-03-11T14:18:59;6.03;;;1.50;;
74941;SDS011;63506;49.346;8.798;2023-03-11T14:21:30;1.98;;;1.40;;
74941;SDS011;63506;49.346;8.798;2023-03-11T14:23:57;2.83;;;1.50;;
74941;SDS011;63506;49.346;8.798;2023-03-11T14:26:27;2.38;;;1.63;;
74941;SDS011;63506;49.346;8.798;2023-03-11T14:28:57;3.55;;;2.05;;
74941;SDS011;63506;49.346;8.798;2023-03-11T14:31:29;1.83;;;1.33;;
74941;SDS011;63506;49.346;8.798;2023-03-11T14:33:57;2.97;;;1.70;;
74941;SDS011;63506;49.346;8.798;2023-03-11T14:36:41;4.95;;;2.15;;
74941;SDS011;63506;49.346;8.798;2023-03-11T14:39:23;4.20;;;2.28;;
74941;SDS011;63506;49.346;8.798;2023-03-11T14:42:01;4.75;;;1.55;;
74941;SDS011;63506;49.346;8.798;2023-03-11T14:44:32;2.35;;;1.80;;
74941;SDS011;63506;49.346;8.798;2023-03-11T14:47:06;2.70;;;1.67;;
74941;SDS011;63506;49.346;8.798;2023-03-11T14:49:36;8.88;;;1.58;;
74941;SDS011;63506;49.346;8.798;2023-03-11T14:52:05;4.05;;;2.30;;
74941;SDS011;63506;49.346;8.798;2023-03-11T14:54:36;2.88;;;1.63;;
74941;SDS011;63506;49.346;8.798;2023-03-11T14:57:05;2.00;;;1.75;;
74941;SDS011;63506;49.346;8.798;2023-03-11T14:59:38;5.25;;;1.52;;
74941;SDS011;63506;49.346;8.798;2023-03-11T15:02:31;2.88;;;1.88;;
74941;SDS011;63506;49.346;8.798;2023-03-11T15:05:09;2.30;;;1.60;;
74941;SDS011;63506;49.346;8.798;2023-03-11T15:07:40;12.60;;;2.37;;
74941;SDS011;63506;49.346;8.798;2023-03-11T15:10:16;2.75;;;2.28;;
74941;SDS011;63506;49.346;8.798;2023-03-11T15:12:43;2.85;;;1.20;;
74941;SDS011;63506;49.346;8.798;2023-03-11T15:15:22;6.30;;;2.03;;
74941;SDS011;63506;49.346;8.798;2023-03-11T15:17:51;1.73;;;1.50;;
74941;SDS011;63506;49.346;8.798;2023-03-11T15:20:25;1.90;;;1.55;;
74941;SDS011;63506;49.346;8.798;2023-03-11T15:22:59;2.40;;;1.30;;
74941;SDS011;63506;49.346;8.798;2023-03-11T15:25:30;1.73;;;1.48;;
74941;SDS011;63506;49.346;8.798;2023-03-11T15:27:59;2.55;;;1.88;;
74941;SDS011;63506;49.346;8.798;2023-03-11T15:30:46;2.63;;;0.95;;
74941;SDS011;63506;49.346;8.798;2023-03-11T15:33:20;3.30;;;1.95;;
74941;SDS011;63506;49.346;8.798;2023-03-11T15:35:51;3.17;;;2.20;;